Time;durP1;ratioP1;P1;durP2;ratioP2;P2;SDS_P1;SDS_P2;PMS_P1;PMS_P2;Temp;Humidity;BMP_temperature;BMP_pressure;BME280_temperature;BME280_humidity;BME280_pressure;Samples;Min_cycle;Max_cycle;Signal;HPM_P1;HPM_P2
2022/09/16 00:01:20;;;;;;;9.10;5.00;;;14.10;99.90;;;;;;4979898;28;20435;-90
2022/09/16 00:03:46;;;;;;;9.73;5.60;;;;;;;;;;4981407;28;21009;-88
2022/09/16 00:06:24;;;;;;;11.73;5.97;;;14.10;99.90;;;;;;4978307;28;20473;-88
2022/09/16 00:08:50;;;;;;;10.33;5.57;;;14.10;99.90;;;;;;4956121;28;20454;-89
2022/09/16 00:11:17;;;;;;;10.55;5.65;;;14.10;99.90;;;;;;4980382;28;20453;-88
2022/09/16 00:13:45;;;;;;;141.13;15.67;;;13.80;99.90;;;;;;4979573;28;20207;-86
2022/09/16 00:16:20;;;;;;;7.17;5.97;;;13.90;99.90;;;;;;4960693;28;20553;-90
2022/09/16 00:18:47;;;;;;;7.97;5.17;;;14.10;99.90;;;;;;4973631;28;20445;-88
2022/09/16 00:21:13;;;;;;;8.77;5.90;;;;;;;;;;4966851;28;20888;-90
2022/09/16 00:23:39;;;;;;;7.37;4.80;;;;;;;;;;4977095;28;20229;-89
2022/09/16 00:26:05;;;;;;;7.73;5.23;;;14.00;99.90;;;;;;4980675;28;21193;-88
2022/09/16 00:28:31;;;;;;;5.72;4.60;;;;;;;;;;4976038;28;20441;-89
2022/09/16 00:31:01;;;;;;;8.10;4.97;;;14.00;99.90;;;;;;4966514;28;20194;-89
2022/09/16 00:33:27;;;;;;;8.20;5.03;;;14.00;99.90;;;;;;4984024;28;20489;-88
2022/09/16 00:36:16;;;;;;;8.30;4.43;;;14.00;99.90;;;;;;4969560;28;20445;-89
2022/09/16 00:38:42;;;;;;;6.37;4.53;;;;;;;;;;4980167;28;20521;-90
2022/09/16 00:41:13;;;;;;;7.90;4.27;;;14.00;99.90;;;;;;4981815;28;20437;-87
2022/09/16 00:43:59;;;;;;;7.40;3.97;;;14.30;99.90;;;;;;4977158;28;20458;-91
2022/09/16 00:46:44;;;;;;;5.85;3.72;;;14.00;99.90;;;;;;4982423;28;20225;-89
2022/09/16 00:49:27;;;;;;;6.95;4.00;;;14.00;99.90;;;;;;4982874;28;20691;-88
2022/09/16 00:51:58;;;;;;;6.47;4.20;;;13.90;99.90;;;;;;4987950;28;20213;-89
2022/09/16 00:54:25;;;;;;;6.10;4.60;;;13.90;99.90;;;;;;4984526;28;20519;-90
2022/09/16 00:56:54;;;;;;;6.13;4.00;;;13.90;99.90;;;;;;4990877;28;20462;-91
2022/09/16 00:59:28;;;;;;;8.57;3.80;;;13.90;99.90;;;;;;4988556;28;20441;-90
2022/09/16 01:01:57;;;;;;;8.83;4.30;;;13.80;99.90;;;;;;4989649;28;20995;-90
2022/09/16 01:04:30;;;;;;;10.10;3.55;;;13.40;99.90;;;;;;4990529;28;20767;-89
2022/09/16 01:06:58;;;;;;;8.20;3.30;;;13.80;99.90;;;;;;4989478;28;20187;-90
2022/09/16 01:09:25;;;;;;;5.85;3.35;;;13.70;99.90;;;;;;4974848;28;20943;-89
2022/09/16 01:11:51;;;;;;;9.03;3.30;;;13.70;99.90;;;;;;4971958;28;21666;-89
2022/09/16 01:17:28;;;;;;;6.70;4.20;;;13.70;99.90;;;;;;4989663;28;20197;-91
2022/09/16 01:20:31;;;;;;;8.55;3.65;;;13.70;99.90;;;;;;4990688;28;20443;-90
2022/09/16 01:23:18;;;;;;;7.15;4.30;;;13.70;99.90;;;;;;4986075;28;20207;-91
2022/09/16 01:25:44;;;;;;;15.97;3.50;;;13.70;99.90;;;;;;4988922;28;20183;-90
2022/09/16 01:28:33;;;;;;;9.57;3.87;;;13.70;99.90;;;;;;4992228;28;20929;-88
2022/09/16 01:31:01;;;;;;;67.60;44.20;;;13.70;99.90;;;;;;4988428;28;20187;-89
2022/09/16 01:33:46;;;;;;;17.93;4.40;;;13.70;99.90;;;;;;4989644;28;20545;-91
2022/09/16 01:36:34;;;;;;;13.55;3.42;;;13.60;99.90;;;;;;4987265;28;20596;-90
2022/09/16 01:42:32;;;;;;;6.90;3.75;;;13.60;99.90;;;;;;4992160;28;20457;-88
2022/09/16 01:45:06;;;;;;;11.63;3.67;;;13.50;99.90;;;;;;4988087;28;20182;-90
2022/09/16 01:48:00;;;;;;;6.50;3.70;;;13.50;99.90;;;;;;4991857;28;20419;-92
2022/09/16 01:50:31;;;;;;;11.20;4.07;;;13.50;99.90;;;;;;4976548;28;20911;-90
2022/09/16 01:52:57;;;;;;;9.35;4.35;;;13.50;99.90;;;;;;4970034;28;20241;-89
2022/09/16 01:55:29;;;;;;;10.60;3.90;;;13.50;99.90;;;;;;4989226;28;20872;-89
2022/09/16 01:58:02;;;;;;;7.47;3.38;;;13.50;99.90;;;;;;4986272;28;20215;-88
2022/09/16 02:00:28;;;;;;;7.53;3.85;;;;;;;;;;4990437;28;20187;-88
2022/09/16 02:03:06;;;;;;;7.73;3.63;;;13.60;99.90;;;;;;4984950;28;20225;-88
2022/09/16 02:05:56;;;;;;;7.50;3.30;;;13.60;99.90;;;;;;4985848;28;20446;-90
2022/09/16 02:08:34;;;;;;;7.20;3.47;;;13.50;99.90;;;;;;4972370;28;20430;-87
2022/09/16 02:11:02;;;;;;;7.27;3.50;;;13.60;99.90;;;;;;4982629;28;20534;-88
2022/09/16 02:13:44;;;;;;;7.30;3.63;;;13.60;99.90;;;;;;4985417;28;20468;-90
2022/09/16 02:16:16;;;;;;;5.63;2.63;;;13.70;99.90;;;;;;4970865;28;20457;-90
2022/09/16 02:18:45;;;;;;;12.80;3.33;;;13.60;99.90;;;;;;4983596;28;20461;-88
2022/09/16 02:21:14;;;;;;;12.57;4.37;;;13.60;99.90;;;;;;4984520;28;20430;-89
2022/09/16 02:23:45;;;;;;;9.80;3.40;;;13.50;99.90;;;;;;4986278;28;20458;-88
2022/09/16 02:26:14;;;;;;;8.40;4.07;;;13.40;99.90;;;;;;4985998;28;20442;-89
2022/09/16 02:28:43;;;;;;;4.10;3.60;;;13.30;99.90;;;;;;4984575;28;20221;-88
2022/09/16 02:31:11;;;;;;;5.03;3.30;;;13.10;99.90;;;;;;4984708;28;20450;-90
2022/09/16 02:33:50;;;;;;;8.17;3.00;;;13.10;99.90;;;;;;4966069;28;20287;-87
2022/09/16 02:36:20;;;;;;;5.90;2.80;;;13.00;99.90;;;;;;4984306;28;20455;-87
2022/09/16 02:38:51;;;;;;;4.80;3.60;;;13.00;99.90;;;;;;4982202;28;21129;-89
2022/09/16 02:41:17;;;;;;;12.23;3.07;;;;;;;;;;4983790;28;20195;-88
2022/09/16 02:43:44;;;;;;;9.50;3.77;;;12.90;99.90;;;;;;4978176;28;20462;-86
2022/09/16 02:46:31;;;;;;;12.80;2.93;;;12.80;99.90;;;;;;4979301;28;20576;-88
2022/09/16 02:49:41;;;;;;;7.77;3.47;;;12.80;99.90;;;;;;4978401;28;20489;-88
2022/09/16 02:52:16;;;;;;;5.35;2.90;;;12.70;99.90;;;;;;4927612;28;20527;-90
2022/09/16 02:54:51;;;;;;;7.95;2.55;;;12.60;99.90;;;;;;4935776;28;20228;-88
2022/09/16 02:57:16;;;;;;;8.10;3.30;;;12.60;99.90;;;;;;4952351;28;20215;-90
2022/09/16 02:59:43;;;;;;;6.43;2.90;;;;;;;;;;4967570;28;20448;-88
2022/09/16 03:02:08;;;;;;;6.90;2.93;;;12.70;99.90;;;;;;4975236;28;20216;-89
2022/09/16 03:04:35;;;;;;;7.17;3.10;;;;;;;;;;4966200;28;20550;-89
2022/09/16 03:07:04;;;;;;;12.07;3.00;;;12.80;99.90;;;;;;4982506;28;20194;-89
2022/09/16 03:09:30;;;;;;;13.32;3.03;;;12.80;99.90;;;;;;4981514;28;20265;-88
2022/09/16 03:11:56;;;;;;;5.23;2.70;;;;;;;;;;4982170;28;20711;-90
2022/09/16 03:14:51;;;;;;;8.90;3.10;;;12.90;99.90;;;;;;4984911;28;20501;-89
2022/09/16 03:17:29;;;;;;;3.70;1.80;;;13.00;99.90;;;;;;4962684;28;20552;-90
2022/09/16 03:20:04;;;;;;;12.45;3.20;;;13.00;99.90;;;;;;4982515;28;20186;-88
2022/09/16 03:23:03;;;;;;;3.60;2.00;;;13.10;99.90;;;;;;4976113;28;20313;-90
2022/09/16 03:25:38;;;;;;;4.40;1.83;;;13.10;99.90;;;;;;4967513;28;20187;-89
2022/09/16 03:28:40;;;;;;;5.80;2.40;;;13.10;99.90;;;;;;4984801;28;20441;-90
2022/09/16 03:31:10;;;;;;;5.73;2.80;;;13.20;99.90;;;;;;4962903;28;20924;-88
2022/09/16 03:33:42;;;;;;;4.20;1.77;;;13.10;99.90;;;;;;4968545;28;20468;-87
2022/09/16 03:36:11;;;;;;;3.07;1.90;;;13.20;99.90;;;;;;5007092;23;20497;-87
2022/09/16 03:38:38;;;;;;;7.17;2.17;;;13.20;99.90;;;;;;4989146;28;20441;-87
2022/09/16 03:41:06;;;;;;;11.00;4.03;;;13.20;99.90;;;;;;4971317;28;20866;-87
2022/09/16 03:43:32;;;;;;;7.73;1.90;;;13.30;99.90;;;;;;4975477;28;20593;-86
2022/09/16 03:45:57;;;;;;;4.13;2.57;;;;;;;;;;4977088;28;22216;-88
2022/09/16 03:48:24;;;;;;;5.70;1.97;;;;;;;;;;4965110;28;20190;-84
2022/09/16 03:54:11;;;;;;;2.80;1.50;;;13.40;99.90;;;;;;4975432;28;20437;-87
2022/09/16 03:56:37;;;;;;;4.50;2.00;;;13.40;99.90;;;;;;4968828;28;20469;-86
2022/09/16 03:59:02;;;;;;;4.00;1.60;;;13.40;99.90;;;;;;4976051;28;21773;-88
2022/09/16 04:01:28;;;;;;;3.13;1.40;;;13.50;99.90;;;;;;4963735;28;20203;-86
2022/09/16 04:03:54;;;;;;;10.53;1.90;;;;;;;;;;4966178;28;20198;-87
2022/09/16 04:06:20;;;;;;;6.53;2.03;;;;;;;;;;4968628;28;20353;-86
2022/09/16 04:08:46;;;;;;;10.77;1.77;;;13.60;99.90;;;;;;4976453;28;20982;-86
2022/09/16 04:11:12;;;;;;;7.00;2.17;;;13.50;99.90;;;;;;4974846;28;20537;-86
2022/09/16 04:13:38;;;;;;;3.13;1.77;;;;;;;;;;4985200;28;20608;-84
2022/09/16 04:16:03;;;;;;;5.60;2.90;;;13.50;99.90;;;;;;4980920;28;20734;-85
2022/09/16 04:18:30;;;;;;;8.10;2.87;;;13.60;99.90;;;;;;4968308;28;20587;-85
2022/09/16 04:21:01;;;;;;;4.20;2.23;;;13.70;99.90;;;;;;4952880;28;20991;-87
2022/09/16 04:23:27;;;;;;;5.77;2.87;;;13.60;99.90;;;;;;4973543;28;20443;-87
2022/09/16 04:26:01;;;;;;;3.37;1.90;;;13.70;99.90;;;;;;4979311;28;20490;-86
2022/09/16 04:28:27;;;;;;;17.20;2.50;;;13.60;99.90;;;;;;4973118;28;21761;-86
2022/09/16 04:30:53;;;;;;;5.00;1.70;;;14.00;99.90;;;;;;4956309;28;20443;-86
2022/09/16 04:33:19;;;;;;;4.50;2.70;;;;;;;;;;4971097;28;20511;-87
2022/09/16 04:35:45;;;;;;;6.47;2.30;;;13.60;99.90;;;;;;4968324;28;20270;-87
2022/09/16 04:38:10;;;;;;;2.70;1.50;;;;;;;;;;4967703;28;20470;-87
2022/09/16 04:40:38;;;;;;;4.47;2.67;;;13.50;99.90;;;;;;4964290;28;20187;-86
2022/09/16 04:43:04;;;;;;;3.20;1.93;;;13.40;99.90;;;;;;4967923;28;20439;-86
2022/09/16 04:45:30;;;;;;;14.17;2.70;;;13.30;99.90;;;;;;4970850;28;20567;-86
2022/09/16 04:47:56;;;;;;;4.80;2.70;;;;;;;;;;4955436;28;20500;-86
2022/09/16 04:50:22;;;;;;;4.38;2.60;;;;;;;;;;4978517;28;20187;-87
2022/09/16 04:52:50;;;;;;;5.57;3.10;;;13.30;99.90;;;;;;4975434;28;20648;-86
2022/09/16 04:55:21;;;;;;;6.60;3.57;;;13.30;99.90;;;;;;4958866;28;20202;-86
2022/09/16 04:57:47;;;;;;;6.93;2.92;;;;;;;;;;4968260;28;21865;-87
2022/09/16 05:00:13;;;;;;;7.33;4.00;;;13.20;99.90;;;;;;4972637;28;20183;-86
2022/09/16 05:02:39;;;;;;;10.87;5.20;;;13.20;99.90;;;;;;4958686;28;20445;-88
2022/09/16 05:05:05;;;;;;;4.17;1.80;;;13.20;99.90;;;;;;4969993;28;20462;-86
2022/09/16 05:07:30;;;;;;;7.90;2.70;;;13.10;99.90;;;;;;4969190;28;20217;-86
2022/09/16 05:09:56;;;;;;;9.60;3.83;;;13.10;99.90;;;;;;4975605;28;20448;-86
2022/09/16 05:12:22;;;;;;;5.30;2.53;;;;;;;;;;4974784;28;20728;-87
2022/09/16 05:14:48;;;;;;;6.97;2.73;;;;;;;;;;4956567;28;20768;-87
2022/09/16 05:17:14;;;;;;;5.50;3.20;;;13.00;99.90;;;;;;4973514;28;20946;-87
2022/09/16 05:19:40;;;;;;;7.38;3.30;;;13.00;99.90;;;;;;4973317;28;20454;-86
2022/09/16 05:22:06;;;;;;;6.07;2.60;;;;;;;;;;4974425;28;20192;-87
2022/09/16 05:24:37;;;;;;;3.65;1.75;;;12.90;99.90;;;;;;4972892;28;20198;-87
2022/09/16 05:27:03;;;;;;;7.03;2.55;;;12.90;99.90;;;;;;4968536;28;20203;-86
2022/09/16 05:29:29;;;;;;;11.10;2.53;;;;;;;;;;4963286;28;20218;-86
2022/09/16 05:31:54;;;;;;;3.57;2.17;;;13.00;99.90;;;;;;4955868;28;20222;-87
2022/09/16 05:34:22;;;;;;;5.03;3.00;;;13.00;99.90;;;;;;4971762;28;20438;-87
2022/09/16 05:36:49;;;;;;;6.20;3.10;;;13.00;99.90;;;;;;4976441;28;20215;-86
2022/09/16 05:39:17;;;;;;;4.10;2.75;;;13.00;99.90;;;;;;4979781;28;20445;-87
2022/09/16 05:41:43;;;;;;;5.87;3.50;;;;;;;;;;4972253;28;20190;-86
2022/09/16 05:44:09;;;;;;;4.33;2.97;;;13.10;99.90;;;;;;5000420;28;20740;-85
2022/09/16 05:46:34;;;;;;;8.33;2.30;;;13.10;99.90;;;;;;4977236;28;20470;-86
2022/09/16 05:49:01;;;;;;;4.60;2.70;;;13.10;99.90;;;;;;4973951;28;20211;-87
2022/09/16 05:51:27;;;;;;;8.13;3.45;;;13.10;99.90;;;;;;4973566;28;20493;-87
2022/09/16 05:53:53;;;;;;;3.60;1.90;;;13.10;99.90;;;;;;4967037;28;20254;-87
2022/09/16 05:56:21;;;;;;;6.05;2.45;;;13.10;99.90;;;;;;4979138;28;20568;-86
2022/09/16 05:58:47;;;;;;;5.88;2.85;;;;;;;;;;4969214;28;20735;-87
2022/09/16 06:01:19;;;;;;;5.30;2.10;;;13.10;99.90;;;;;;4976642;28;20196;-87
2022/09/16 06:03:46;;;;;;;5.93;2.60;;;13.10;99.90;;;;;;4963344;28;20451;-87
2022/09/16 06:06:25;;;;;;;9.55;3.10;;;13.10;99.90;;;;;;4957322;28;20466;-87
2022/09/16 06:08:53;;;;;;;7.30;2.67;;;13.10;99.90;;;;;;4976118;28;20327;-87
2022/09/16 06:11:19;;;;;;;4.65;3.22;;;13.00;99.90;;;;;;4978616;28;20494;-86
2022/09/16 06:13:45;;;;;;;6.97;2.77;;;;;;;;;;4973595;28;20187;-86
2022/09/16 06:16:12;;;;;;;6.30;3.87;;;;;;;;;;4972025;28;20450;-86
2022/09/16 06:18:37;;;;;;;6.03;3.50;;;12.90;99.90;;;;;;4973682;28;20797;-87
2022/09/16 06:21:07;;;;;;;8.10;3.73;;;12.80;99.90;;;;;;4962101;28;20430;-87
2022/09/16 06:23:34;;;;;;;11.23;4.38;;;12.80;99.90;;;;;;4979069;28;20271;-85
2022/09/16 06:26:02;;;;;;;9.50;4.15;;;12.70;99.90;;;;;;4961790;28;20207;-85
2022/09/16 06:28:28;;;;;;;5.00;3.30;;;12.70;99.90;;;;;;4980040;28;20185;-84
2022/09/16 06:31:09;;;;;;;9.27;3.72;;;12.80;99.90;;;;;;4976122;28;20205;-86
2022/09/16 06:33:35;;;;;;;12.57;3.13;;;;;;;;;;4967265;28;20655;-87
2022/09/16 06:36:12;;;;;;;6.95;4.15;;;12.80;99.90;;;;;;4992783;28;20243;-87
2022/09/16 06:38:38;;;;;;;11.63;3.00;;;12.80;99.90;;;;;;4998543;28;20251;-85
2022/09/16 06:41:06;;;;;;;4.90;2.53;;;12.80;99.90;;;;;;4984566;28;20222;-86
2022/09/16 06:43:32;;;;;;;4.25;3.03;;;;;;;;;;4980137;28;20439;-85
2022/09/16 06:46:26;;;;;;;3.65;2.75;;;12.80;99.90;;;;;;4978421;28;20208;-86
2022/09/16 06:48:55;;;;;;;9.70;3.23;;;12.90;99.90;;;;;;4973335;28;20307;-87
2022/09/16 06:51:23;;;;;;;5.40;2.43;;;13.00;99.90;;;;;;4975157;28;20966;-86
2022/09/16 06:53:49;;;;;;;4.00;2.42;;;13.00;99.90;;;;;;4978541;28;20434;-87
2022/09/16 06:56:18;;;;;;;3.83;2.73;;;13.10;99.90;;;;;;4980700;28;20207;-88
2022/09/16 06:58:48;;;;;;;5.93;4.00;;;13.20;99.90;;;;;;4978398;28;20426;-88
2022/09/16 07:01:16;;;;;;;5.50;2.53;;;13.30;99.90;;;;;;4976630;28;20446;-85
2022/09/16 07:03:44;;;;;;;4.30;2.72;;;13.40;99.90;;;;;;4975878;28;20526;-85
2022/09/16 07:06:11;;;;;;;9.10;2.90;;;13.50;99.90;;;;;;4958061;28;20750;-86
2022/09/16 07:08:37;;;;;;;5.88;4.40;;;13.50;99.90;;;;;;4976982;28;20430;-86
2022/09/16 07:11:06;;;;;;;7.37;2.10;;;13.50;99.90;;;;;;4988770;28;20210;-88
2022/09/16 07:13:32;;;;;;;24.23;2.93;;;13.50;99.90;;;;;;4994533;28;20500;-89
2022/09/16 07:15:59;;;;;;;9.13;3.07;;;13.70;99.90;;;;;;4982488;28;20519;-88
2022/09/16 07:18:25;;;;;;;6.47;2.90;;;;;;;;;;4976995;28;20467;-86
2022/09/16 07:20:51;;;;;;;109.73;96.53;;;;;;;;;;4946621;28;20423;-87
2022/09/16 07:23:17;;;;;;;9.57;2.90;;;;;;;;;;4977080;28;21082;-86
2022/09/16 07:25:42;;;;;;;5.07;2.67;;;13.50;99.90;;;;;;4959860;28;20463;-84
2022/09/16 07:28:08;;;;;;;5.40;3.67;;;;;;;;;;4974089;28;20450;-85
2022/09/16 07:30:34;;;;;;;11.03;3.00;;;13.30;99.90;;;;;;4970312;28;20202;-84
2022/09/16 07:33:00;;;;;;;6.60;3.10;;;;;;;;;;4968274;28;20515;-86
2022/09/16 07:35:26;;;;;;;5.05;2.90;;;13.10;99.90;;;;;;4968416;28;20815;-85
2022/09/16 07:37:51;;;;;;;6.17;2.80;;;13.00;99.90;;;;;;4970923;28;20210;-85
2022/09/16 07:40:17;;;;;;;5.23;2.57;;;13.10;99.90;;;;;;4971479;28;20206;-84
2022/09/16 07:42:43;;;;;;;6.60;3.77;;;;;;;;;;4962274;28;20179;-86
2022/09/16 07:45:09;;;;;;;4.63;3.00;;;13.30;99.90;;;;;;4972204;28;20318;-86
2022/09/16 07:47:35;;;;;;;6.57;3.87;;;;;;;;;;4954761;28;20274;-86
2022/09/16 07:50:01;;;;;;;14.33;3.53;;;13.60;99.90;;;;;;4955360;28;20745;-86
2022/09/16 07:52:28;;;;;;;5.27;3.13;;;13.60;99.90;;;;;;4961269;28;20442;-86
2022/09/16 07:54:54;;;;;;;5.67;3.53;;;13.70;99.90;;;;;;4971933;28;21231;-86
2022/09/16 07:57:21;;;;;;;5.22;3.25;;;;;;;;;;4952661;28;20520;-85
2022/09/16 07:59:47;;;;;;;8.53;3.50;;;;;;;;;;4974563;28;20183;-86
2022/09/16 08:02:14;;;;;;;5.67;3.20;;;13.70;99.90;;;;;;4970537;28;20516;-85
2022/09/16 08:04:40;;;;;;;5.87;3.37;;;;;;;;;;4970526;28;20970;-88
2022/09/16 08:07:06;;;;;;;5.93;3.60;;;;;;;;;;4971580;28;20445;-89
2022/09/16 08:09:32;;;;;;;7.37;3.00;;;;;;;;;;4969606;28;20509;-87
2022/09/16 08:12:02;;;;;;;5.30;3.47;;;14.90;99.90;;;;;;4947411;28;20494;-87
2022/09/16 08:14:28;;;;;;;4.77;2.83;;;15.10;99.90;;;;;;4951928;28;20430;-87
2022/09/16 08:16:54;;;;;;;4.00;2.40;;;;;;;;;;4967772;28;21200;-89
2022/09/16 08:19:21;;;;;;;11.23;3.23;;;;;;;;;;4971181;28;20242;-88
2022/09/16 08:21:47;;;;;;;14.83;3.33;;;;;;;;;;4970171;28;20444;-88
2022/09/16 08:24:13;;;;;;;7.00;3.23;;;;;;;;;;4975288;28;20439;-87
2022/09/16 08:26:39;;;;;;;5.97;2.80;;;;;;;;;;4954136;28;20562;-87
2022/09/16 08:29:06;;;;;;;4.27;2.87;;;;;;;;;;4970392;28;20849;-85
2022/09/16 08:31:32;;;;;;;7.10;3.67;;;14.40;99.90;;;;;;4952970;28;20442;-85
2022/09/16 08:33:57;;;;;;;8.90;2.90;;;;;;;;;;4966309;28;20455;-85
2022/09/16 08:36:24;;;;;;;6.93;2.67;;;14.40;99.90;;;;;;4993517;28;20455;-87
2022/09/16 08:38:53;;;;;;;4.57;2.43;;;14.40;99.90;;;;;;4977182;28;20454;-87
2022/09/16 08:41:43;;;;;;;5.17;3.20;;;14.50;99.90;;;;;;4968016;28;20450;-87
2022/09/16 08:44:20;;;;;;;8.30;3.07;;;14.30;99.90;;;;;;4970055;28;20450;-87
2022/09/16 08:46:52;;;;;;;5.50;3.27;;;14.20;99.90;;;;;;4953132;28;20458;-86
2022/09/16 08:49:27;;;;;;;4.10;2.73;;;14.40;99.90;;;;;;4965944;28;20438;-86
2022/09/16 08:51:55;;;;;;;8.57;3.40;;;14.40;99.90;;;;;;4975502;28;20433;-85
2022/09/16 08:54:30;;;;;;;7.53;3.40;;;14.20;99.90;;;;;;4962385;28;20465;-87
2022/09/16 08:57:00;;;;;;;8.20;3.63;;;14.40;99.90;;;;;;4957219;28;20478;-87
2022/09/16 08:59:32;;;;;;;5.87;3.00;;;14.60;99.90;;;;;;4951911;28;20435;-87
2022/09/16 09:02:22;;;;;;;8.50;3.80;;;14.60;99.90;;;;;;4968759;28;20438;-87
2022/09/16 09:04:48;;;;;;;10.93;3.80;;;14.60;99.90;;;;;;4969113;28;20446;-87
2022/09/16 09:07:45;;;;;;;8.00;2.90;;;14.80;99.90;;;;;;4965245;28;20496;-87
2022/09/16 09:10:32;;;;;;;8.97;2.90;;;14.80;99.90;;;;;;4976323;28;20204;-87
2022/09/16 09:13:03;;;;;;;5.83;2.97;;;14.80;99.90;;;;;;4975039;28;20437;-87
2022/09/16 09:15:56;;;;;;;4.73;3.13;;;14.90;99.90;;;;;;4976233;28;20520;-87
2022/09/16 09:18:35;;;;;;;6.63;3.80;;;14.90;99.90;;;;;;4978736;28;21044;-87
2022/09/16 09:21:25;;;;;;;10.63;3.30;;;14.60;99.90;;;;;;4983936;28;20572;-87
2022/09/16 09:23:51;;;;;;;9.90;3.40;;;;;;;;;;4975293;28;20465;-88
2022/09/16 09:26:23;;;;;;;8.37;3.50;;;15.00;99.90;;;;;;4956798;28;20469;-88
2022/09/16 09:29:15;;;;;;;4.83;3.10;;;14.90;99.90;;;;;;4978533;28;20430;-88
2022/09/16 09:32:07;;;;;;;6.70;3.97;;;14.80;99.90;;;;;;4974969;28;20446;-88
2022/09/16 09:35:00;;;;;;;6.50;4.10;;;14.50;99.90;;;;;;4970745;28;20446;-88
2022/09/16 09:38:05;;;;;;;5.20;4.00;;;14.50;99.90;;;;;;4962969;28;20506;-88
2022/09/16 09:40:51;;;;;;;9.10;4.20;;;14.50;99.90;;;;;;4978216;28;20441;-86
2022/09/16 09:43:55;;;;;;;6.30;4.33;;;14.50;99.90;;;;;;4953232;28;20475;-88
2022/09/16 09:46:30;;;;;;;8.07;4.87;;;15.00;99.90;;;;;;4969935;28;20470;-85
2022/09/16 09:49:10;;;;;;;11.53;4.80;;;15.30;99.90;;;;;;4975736;28;20430;-87
2022/09/16 09:51:53;;;;;;;7.73;4.30;;;15.00;99.90;;;;;;4974665;28;20454;-85
2022/09/16 09:54:26;;;;;;;5.47;4.57;;;14.90;99.90;;;;;;4988424;28;20442;-86
2022/09/16 09:57:11;;;;;;;6.60;3.77;;;15.00;99.90;;;;;;4950195;28;20466;-86
2022/09/16 10:00:10;;;;;;;7.03;4.30;;;15.00;99.90;;;;;;4954255;28;20442;-85
2022/09/16 10:02:39;;;;;;;8.60;4.60;;;14.80;99.90;;;;;;4998007;28;20418;-86
2022/09/16 10:05:06;;;;;;;9.33;3.80;;;15.10;99.90;;;;;;4993410;28;20469;-89
2022/09/16 10:07:36;;;;;;;8.30;4.50;;;15.00;99.90;;;;;;4971582;28;20549;-86
2022/09/16 10:10:14;;;;;;;8.97;4.67;;;15.10;99.90;;;;;;4974466;28;20430;-86
2022/09/16 10:12:41;;;;;;;8.50;3.37;;;15.20;99.90;;;;;;4967166;28;20438;-86
2022/09/16 10:15:20;;;;;;;6.67;4.23;;;15.10;99.90;;;;;;4952304;28;20454;-85
2022/09/16 10:17:51;;;;;;;5.80;4.40;;;15.00;99.90;;;;;;4966565;28;20458;-85
2022/09/16 10:20:33;;;;;;;7.83;4.47;;;15.00;99.90;;;;;;4952035;28;20484;-84
2022/09/16 10:23:08;;;;;;;7.93;3.23;;;15.00;99.90;;;;;;4976738;28;20874;-85
2022/09/16 10:25:35;;;;;;;7.30;3.73;;;14.90;99.90;;;;;;4976919;28;20462;-86
2022/09/16 10:28:17;;;;;;;7.73;3.90;;;14.60;99.90;;;;;;4974324;28;20553;-86
2022/09/16 10:30:49;;;;;;;8.60;3.60;;;14.40;99.90;;;;;;4972142;28;20513;-85
2022/09/16 10:33:42;;;;;;;5.97;3.27;;;14.30;99.90;;;;;;4972180;28;20428;-85
2022/09/16 10:36:16;;;;;;;5.30;3.70;;;14.30;99.90;;;;;;4973601;28;20480;-85
2022/09/16 10:41:18;;;;;;;5.97;3.83;;;14.20;99.90;;;;;;4998671;28;20481;-85
2022/09/16 10:43:50;;;;;;;9.40;4.30;;;14.00;99.90;;;;;;4975372;28;20448;-88
2022/09/16 10:46:17;;;;;;;4.30;3.63;;;14.00;99.90;;;;;;5005356;28;21035;-85
2022/09/16 10:48:44;;;;;;;10.33;4.57;;;14.00;99.90;;;;;;5001291;28;20553;-84
2022/09/16 10:51:30;;;;;;;7.80;4.40;;;14.20;99.90;;;;;;4987846;28;20442;-87
2022/09/16 10:53:58;;;;;;;7.40;4.53;;;14.30;99.90;;;;;;4999877;28;20850;-82
2022/09/16 10:56:28;;;;;;;5.77;3.70;;;14.10;99.90;;;;;;4993994;28;20441;-85
2022/09/16 10:59:04;;;;;;;5.17;3.80;;;14.30;99.90;;;;;;4998718;28;20452;-86
2022/09/16 11:01:47;;;;;;;5.50;3.90;;;14.30;99.90;;;;;;5001690;28;20440;-86
2022/09/16 11:04:30;;;;;;;8.47;5.23;;;14.40;99.90;;;;;;4999973;28;20437;-85
2022/09/16 11:07:26;;;;;;;7.97;4.30;;;14.60;99.90;;;;;;4999486;28;20441;-84
2022/09/16 11:10:15;;;;;;;8.90;4.90;;;14.70;99.90;;;;;;4955176;28;20562;-85
2022/09/16 11:12:53;;;;;;;7.37;4.10;;;15.00;99.90;;;;;;4979316;28;22054;-84
2022/09/16 11:15:29;;;;;;;10.97;4.53;;;15.40;99.90;;;;;;5003773;28;20449;-86
2022/09/16 11:18:08;;;;;;;12.07;4.90;;;15.90;99.90;;;;;;5015154;28;20499;-84
2022/09/16 11:20:34;;;;;;;10.63;4.10;;;;;;;;;;5010829;28;20460;-82
2022/09/16 11:23:36;;;;;;;8.83;3.93;;;16.60;99.90;;;;;;5000858;28;20466;-82
2022/09/16 11:26:34;;;;;;;10.90;3.47;;;16.90;99.90;;;;;;5003634;28;20433;-85
2022/09/16 11:29:11;;;;;;;6.90;3.80;;;17.70;99.90;;;;;;4999049;28;20460;-88
2022/09/16 11:32:08;;;;;;;8.07;3.43;;;17.70;99.90;;;;;;5002787;28;20436;-87
2022/09/16 11:34:34;;;;;;;6.73;2.97;;;;;;;;;;4990662;28;20451;-83
2022/09/16 11:37:00;;;;;;;8.20;2.20;;;;;;;;;;5001103;28;20845;-86
2022/09/16 11:39:37;;;;;;;11.03;3.13;;;17.40;99.90;;;;;;5011797;28;20465;-86
2022/09/16 11:42:09;;;;;;;7.60;2.57;;;16.60;99.90;;;;;;5006404;28;20448;-86
2022/09/16 11:44:44;;;;;;;7.43;2.70;;;16.50;99.90;;;;;;5007563;28;20459;-86
2022/09/16 11:47:10;;;;;;;5.83;2.13;;;;;;;;;;4981583;28;20453;-84
2022/09/16 11:50:37;;;;;;;13.30;2.00;;;16.10;99.90;;;;;;5012534;28;21174;-85
2022/09/16 11:53:19;;;;;;;5.67;1.67;;;16.30;99.90;;;;;;4941822;28;20480;-84
2022/09/16 11:55:45;;;;;;;5.60;2.23;;;16.40;99.90;;;;;;4947174;28;20455;-85
2022/09/16 11:58:40;;;;;;;3.43;2.13;;;16.90;99.90;;;;;;4989223;28;20489;-83
2022/09/16 12:01:20;;;;;;;3.77;2.10;;;17.00;99.90;;;;;;4986755;28;20437;-87
2022/09/16 12:03:53;;;;;;;3.73;2.27;;;17.10;99.90;;;;;;5002791;28;20806;-87
2022/09/16 12:06:23;;;;;;;5.00;2.20;;;16.90;99.90;;;;;;5000936;28;20444;-87
2022/09/16 12:09:16;;;;;;;7.67;2.60;;;16.50;99.90;;;;;;4988648;28;20430;-85
2022/09/16 12:11:53;;;;;;;6.40;2.13;;;16.60;99.90;;;;;;4997408;28;20445;-86
2022/09/16 12:14:30;;;;;;;3.13;2.00;;;16.30;99.90;;;;;;4996687;28;20720;-87
2022/09/16 12:17:05;;;;;;;7.70;2.40;;;16.30;99.90;;;;;;4979566;28;20875;-86
2022/09/16 12:19:44;;;;;;;5.67;2.67;;;16.60;99.90;;;;;;4971737;28;21622;-87
2022/09/16 12:22:25;;;;;;;7.00;2.80;;;16.80;99.90;;;;;;4971387;28;20430;-85
2022/09/16 12:25:08;;;;;;;3.73;2.30;;;16.70;99.90;;;;;;4997311;28;20441;-85
2022/09/16 12:27:56;;;;;;;5.43;2.60;;;16.60;99.90;;;;;;4996882;28;20432;-86
2022/09/16 12:30:27;;;;;;;6.90;2.77;;;16.80;99.90;;;;;;4985663;28;20473;-88
2022/09/16 12:33:02;;;;;;;6.57;2.70;;;16.90;99.90;;;;;;4996804;28;20505;-86
2022/09/16 12:35:53;;;;;;;4.93;2.10;;;17.10;99.90;;;;;;5008223;28;20437;-84
2022/09/16 12:38:20;;;;;;;4.70;2.27;;;17.10;99.90;;;;;;4997138;28;20481;-84
2022/09/16 12:41:01;;;;;;;6.00;2.83;;;18.20;99.90;;;;;;4999896;28;20476;-85
2022/09/16 12:43:46;;;;;;;4.23;2.10;;;17.00;99.90;;;;;;5006061;28;20445;-88
2022/09/16 12:46:35;;;;;;;3.60;1.90;;;16.70;99.90;;;;;;4980891;28;20960;-85
2022/09/16 12:49:19;;;;;;;3.90;2.03;;;16.30;99.90;;;;;;4999955;28;20539;-85
2022/09/16 12:52:00;;;;;;;8.73;2.50;;;16.40;99.90;;;;;;4995893;28;21057;-86
2022/09/16 12:54:54;;;;;;;3.90;1.93;;;16.50;99.90;;;;;;4996219;28;20437;-86
2022/09/16 12:57:37;;;;;;;4.40;2.20;;;16.60;99.90;;;;;;4983220;28;20457;-84
2022/09/16 13:00:19;;;;;;;5.50;2.30;;;16.80;99.90;;;;;;4997502;28;20475;-84
2022/09/16 13:02:54;;;;;;;3.00;1.80;;;17.40;99.90;;;;;;4997934;28;20976;-86
2022/09/16 13:05:36;;;;;;;4.60;1.80;;;18.10;99.90;;;;;;4982305;28;20436;-84
2022/09/16 13:08:19;;;;;;;2.97;1.90;;;18.50;99.90;;;;;;4998403;28;20958;-82
2022/09/16 13:10:45;;;;;;;4.30;1.70;;;;;;;;;;5012640;28;20469;-85
2022/09/16 13:13:20;;;;;;;5.63;2.70;;;17.70;99.90;;;;;;5000631;28;20444;-84
2022/09/16 13:15:57;;;;;;;7.00;2.50;;;17.30;99.90;;;;;;5004821;28;20447;-87
2022/09/16 13:18:36;;;;;;;3.70;1.73;;;17.30;99.90;;;;;;4990590;28;20470;-85
2022/09/16 13:21:11;;;;;;;13.63;2.90;;;17.30;99.90;;;;;;4997425;28;20457;-87
2022/09/16 13:23:44;;;;;;;2.83;1.90;;;17.30;99.90;;;;;;4987703;28;20880;-85
2022/09/16 13:26:10;;;;;;;4.33;2.23;;;17.30;99.90;;;;;;4984279;28;21111;-86
2022/09/16 13:28:44;;;;;;;6.03;1.93;;;17.40;99.90;;;;;;4987642;28;20437;-84
2022/09/16 13:31:13;;;;;;;3.50;1.80;;;17.20;99.90;;;;;;5003931;28;20512;-85
2022/09/16 13:33:44;;;;;;;2.83;1.70;;;16.80;99.90;;;;;;5001583;28;20608;-83
2022/09/16 13:36:10;;;;;;;2.20;0.70;;;;;;;;;;5003559;28;20687;-87
2022/09/16 13:38:39;;;;;;;2.93;0.80;;;16.60;99.90;;;;;;5001490;28;21016;-86
2022/09/16 13:41:05;;;;;;;3.03;1.17;;;16.40;99.90;;;;;;4990147;28;21308;-85
2022/09/16 13:43:46;;;;;;;2.63;1.17;;;16.40;99.90;;;;;;4994341;28;20445;-84
2022/09/16 13:46:24;;;;;;;0.80;0.80;;;15.80;99.90;;;;;;4980971;28;20444;-86